sensor_id;sensor_type;location;lat;lon;timestamp;temperature;humidity
16305;DHT22;8261;47.678;-122.174;2022-07-10T00:02:26;28.20;99.90
16305;DHT22;8261;47.678;-122.174;2022-07-10T00:17:24;27.20;99.90
16305;DHT22;8261;47.678;-122.174;2022-07-10T00:20:11;27.40;99.90
16305;DHT22;8261;47.678;-122.174;2022-07-10T00:23:09;27.80;99.90
16305;DHT22;8261;47.678;-122.174;2022-07-10T00:26:11;28.00;99.90
16305;DHT22;8261;47.678;-122.174;2022-07-10T00:29:00;28.00;99.90
16305;DHT22;8261;47.678;-122.174;2022-07-10T00:31:57;27.90;99.90
16305;DHT22;8261;47.678;-122.174;2022-07-10T00:34:47;27.50;99.90
16305;DHT22;8261;47.678;-122.174;2022-07-10T00:37:20;27.30;99.90
16305;DHT22;8261;47.678;-122.174;2022-07-10T00:40:20;27.50;99.90
16305;DHT22;8261;47.678;-122.174;2022-07-10T00:42:54;27.20;99.90
16305;DHT22;8261;47.678;-122.174;2022-07-10T00:45:26;27.20;99.90
16305;DHT22;8261;47.678;-122.174;2022-07-10T00:48:12;27.40;99.90
16305;DHT22;8261;47.678;-122.174;2022-07-10T00:50:54;27.50;99.90
16305;DHT22;8261;47.678;-122.174;2022-07-10T00:53:27;27.60;99.90
16305;DHT22;8261;47.678;-122.174;2022-07-10T00:56:01;27.30;99.90
16305;DHT22;8261;47.678;-122.174;2022-07-10T00:58:33;27.50;99.90
16305;DHT22;8261;47.678;-122.174;2022-07-10T01:01:13;28.10;99.90
16305;DHT22;8261;47.678;-122.174;2022-07-10T01:03:49;28.70;99.90
16305;DHT22;8261;47.678;-122.174;2022-07-10T01:06:29;29.30;99.90
16305;DHT22;8261;47.678;-122.174;2022-07-10T01:09:02;28.50;99.90
16305;DHT22;8261;47.678;-122.174;2022-07-10T01:11:34;28.40;99.90
16305;DHT22;8261;47.678;-122.174;2022-07-10T01:14:15;28.00;99.90
16305;DHT22;8261;47.678;-122.174;2022-07-10T01:16:56;28.30;99.90
16305;DHT22;8261;47.678;-122.174;2022-07-10T01:19:28;28.30;99.90
16305;DHT22;8261;47.678;-122.174;2022-07-10T01:22:03;28.30;99.90
16305;DHT22;8261;47.678;-122.174;2022-07-10T01:24:34;28.50;99.90
16305;DHT22;8261;47.678;-122.174;2022-07-10T01:27:09;29.40;99.90
16305;DHT22;8261;47.678;-122.174;2022-07-10T01:29:42;28.50;99.90
16305;DHT22;8261;47.678;-122.174;2022-07-10T01:32:15;28.10;99.90
16305;DHT22;8261;47.678;-122.174;2022-07-10T01:34:47;29.00;99.90
16305;DHT22;8261;47.678;-122.174;2022-07-10T01:37:44;29.40;99.90
16305;DHT22;8261;47.678;-122.174;2022-07-10T01:40:17;29.40;99.90
16305;DHT22;8261;47.678;-122.174;2022-07-10T01:42:54;28.90;99.90
16305;DHT22;8261;47.678;-122.174;2022-07-10T01:45:28;28.50;99.90
16305;DHT22;8261;47.678;-122.174;2022-07-10T01:48:18;27.80;99.90
16305;DHT22;8261;47.678;-122.174;2022-07-10T01:51:09;27.40;99.90
16305;DHT22;8261;47.678;-122.174;2022-07-10T01:53:59;27.10;99.90
16305;DHT22;8261;47.678;-122.174;2022-07-10T01:56:51;26.40;99.90
16305;DHT22;8261;47.678;-122.174;2022-07-10T02:10:41;26.00;99.90
16305;DHT22;8261;47.678;-122.174;2022-07-10T02:13:27;25.10;99.90
16305;DHT22;8261;47.678;-122.174;2022-07-10T02:16:12;24.70;99.90
16305;DHT22;8261;47.678;-122.174;2022-07-10T02:18:46;24.50;99.90
16305;DHT22;8261;47.678;-122.174;2022-07-10T02:21:32;24.40;99.90
16305;DHT22;8261;47.678;-122.174;2022-07-10T02:24:33;24.10;99.90
16305;DHT22;8261;47.678;-122.174;2022-07-10T02:27:26;24.10;99.90
16305;DHT22;8261;47.678;-122.174;2022-07-10T02:30:00;24.00;99.90
16305;DHT22;8261;47.678;-122.174;2022-07-10T02:32:35;23.80;99.90
16305;DHT22;8261;47.678;-122.174;2022-07-10T02:35:21;23.50;99.90
16305;DHT22;8261;47.678;-122.174;2022-07-10T02:37:56;23.00;99.90
16305;DHT22;8261;47.678;-122.174;2022-07-10T02:41:01;22.60;99.90
16305;DHT22;8261;47.678;-122.174;2022-07-10T02:44:18;22.30;99.90
16305;DHT22;8261;47.678;-122.174;2022-07-10T02:47:04;22.20;99.90
16305;DHT22;8261;47.678;-122.174;2022-07-10T02:49:43;21.90;99.90
16305;DHT22;8261;47.678;-122.174;2022-07-10T03:12:06;21.00;99.90
16305;DHT22;8261;47.678;-122.174;2022-07-10T03:14:51;20.50;99.90
16305;DHT22;8261;47.678;-122.174;2022-07-10T03:17:39;20.30;99.90
16305;DHT22;8261;47.678;-122.174;2022-07-10T03:20:17;20.30;99.90
16305;DHT22;8261;47.678;-122.174;2022-07-10T03:22:53;20.10;99.90
16305;DHT22;8261;47.678;-122.174;2022-07-10T03:25:31;20.10;99.90
16305;DHT22;8261;47.678;-122.174;2022-07-10T03:28:34;20.00;99.90
16305;DHT22;8261;47.678;-122.174;2022-07-10T03:31:10;19.90;99.90
16305;DHT22;8261;47.678;-122.174;2022-07-10T03:33:51;19.80;99.90
16305;DHT22;8261;47.678;-122.174;2022-07-10T03:36:35;19.70;99.90
16305;DHT22;8261;47.678;-122.174;2022-07-10T03:39:09;19.60;99.90
16305;DHT22;8261;47.678;-122.174;2022-07-10T03:41:42;19.50;99.90
16305;DHT22;8261;47.678;-122.174;2022-07-10T03:44:18;19.50;99.90
16305;DHT22;8261;47.678;-122.174;2022-07-10T03:46:54;19.40;99.90
16305;DHT22;8261;47.678;-122.174;2022-07-10T03:49:30;19.40;99.90
16305;DHT22;8261;47.678;-122.174;2022-07-10T03:52:10;19.40;99.90
16305;DHT22;8261;47.678;-122.174;2022-07-10T03:54:56;19.30;99.90
16305;DHT22;8261;47.678;-122.174;2022-07-10T03:57:37;19.20;99.90
16305;DHT22;8261;47.678;-122.174;2022-07-10T04:03:36;19.10;99.90
16305;DHT22;8261;47.678;-122.174;2022-07-10T04:06:22;19.00;99.90
16305;DHT22;8261;47.678;-122.174;2022-07-10T04:09:21;18.90;99.90
16305;DHT22;8261;47.678;-122.174;2022-07-10T04:12:00;18.90;99.90
16305;DHT22;8261;47.678;-122.174;2022-07-10T04:15:05;18.90;99.90
16305;DHT22;8261;47.678;-122.174;2022-07-10T04:17:47;18.80;99.90
16305;DHT22;8261;47.678;-122.174;2022-07-10T04:20:25;18.70;99.90
16305;DHT22;8261;47.678;-122.174;2022-07-10T04:22:58;18.70;99.90
16305;DHT22;8261;47.678;-122.174;2022-07-10T04:25:32;18.60;99.90
16305;DHT22;8261;47.678;-122.174;2022-07-10T04:28:05;18.60;99.90
16305;DHT22;8261;47.678;-122.174;2022-07-10T04:30:45;18.50;99.90
16305;DHT22;8261;47.678;-122.174;2022-07-10T04:33:21;18.40;99.90
16305;DHT22;8261;47.678;-122.174;2022-07-10T04:35:55;18.40;99.90
16305;DHT22;8261;47.678;-122.174;2022-07-10T04:38:26;18.40;99.90
16305;DHT22;8261;47.678;-122.174;2022-07-10T04:41:26;18.30;99.90
16305;DHT22;8261;47.678;-122.174;2022-07-10T04:44:09;18.30;99.90
16305;DHT22;8261;47.678;-122.174;2022-07-10T04:46:44;18.20;99.90
16305;DHT22;8261;47.678;-122.174;2022-07-10T04:49:22;18.20;99.90
16305;DHT22;8261;47.678;-122.174;2022-07-10T04:52:32;18.20;99.90
16305;DHT22;8261;47.678;-122.174;2022-07-10T04:55:06;18.10;99.90
16305;DHT22;8261;47.678;-122.174;2022-07-10T04:57:43;18.10;99.90
16305;DHT22;8261;47.678;-122.174;2022-07-10T05:00:16;18.00;99.90
16305;DHT22;8261;47.678;-122.174;2022-07-10T05:02:50;17.90;99.90
16305;DHT22;8261;47.678;-122.174;2022-07-10T05:05:23;17.90;99.90
16305;DHT22;8261;47.678;-122.174;2022-07-10T05:08:11;17.90;99.90
16305;DHT22;8261;47.678;-122.174;2022-07-10T05:22:13;17.80;99.90
16305;DHT22;8261;47.678;-122.174;2022-07-10T05:28:39;17.80;99.90
16305;DHT22;8261;47.678;-122.174;2022-07-10T05:34:00;17.80;99.90
16305;DHT22;8261;47.678;-122.174;2022-07-10T05:36:52;17.80;99.90
16305;DHT22;8261;47.678;-122.174;2022-07-10T05:39:26;17.90;99.90
16305;DHT22;8261;47.678;-122.174;2022-07-10T05:41:58;17.80;99.90
16305;DHT22;8261;47.678;-122.174;2022-07-10T05:44:39;17.80;99.90
16305;DHT22;8261;47.678;-122.174;2022-07-10T05:47:27;17.90;99.90
16305;DHT22;8261;47.678;-122.174;2022-07-10T05:50:09;17.90;99.90
16305;DHT22;8261;47.678;-122.174;2022-07-10T05:52:50;17.90;99.90
16305;DHT22;8261;47.678;-122.174;2022-07-10T05:55:34;17.80;99.90
16305;DHT22;8261;47.678;-122.174;2022-07-10T05:58:15;17.90;99.90
16305;DHT22;8261;47.678;-122.174;2022-07-10T06:00:56;17.90;99.90
16305;DHT22;8261;47.678;-122.174;2022-07-10T06:03:41;17.90;99.90
16305;DHT22;8261;47.678;-122.174;2022-07-10T06:06:33;17.90;99.90
16305;DHT22;8261;47.678;-122.174;2022-07-10T06:09:18;17.80;99.90
16305;DHT22;8261;47.678;-122.174;2022-07-10T06:11:54;17.80;99.90
16305;DHT22;8261;47.678;-122.174;2022-07-10T06:14:26;17.80;99.90
16305;DHT22;8261;47.678;-122.174;2022-07-10T06:17:28;17.70;99.90
16305;DHT22;8261;47.678;-122.174;2022-07-10T06:20:02;17.80;99.90
16305;DHT22;8261;47.678;-122.174;2022-07-10T06:22:47;17.70;99.90
16305;DHT22;8261;47.678;-122.174;2022-07-10T06:25:22;17.70;99.90
16305;DHT22;8261;47.678;-122.174;2022-07-10T06:28:00;17.70;99.90
16305;DHT22;8261;47.678;-122.174;2022-07-10T06:30:54;17.70;99.90
16305;DHT22;8261;47.678;-122.174;2022-07-10T06:33:41;17.70;99.90
16305;DHT22;8261;47.678;-122.174;2022-07-10T06:36:17;17.60;99.90
16305;DHT22;8261;47.678;-122.174;2022-07-10T06:39:02;17.60;99.90
16305;DHT22;8261;47.678;-122.174;2022-07-10T06:41:46;17.60;99.90
16305;DHT22;8261;47.678;-122.174;2022-07-10T06:44:22;17.60;99.90
16305;DHT22;8261;47.678;-122.174;2022-07-10T06:46:54;17.60;99.90
16305;DHT22;8261;47.678;-122.174;2022-07-10T06:50:01;17.60;99.90
16305;DHT22;8261;47.678;-122.174;2022-07-10T06:52:53;17.60;99.90
16305;DHT22;8261;47.678;-122.174;2022-07-10T06:55:29;17.60;99.90
16305;DHT22;8261;47.678;-122.174;2022-07-10T06:58:05;17.70;99.90
16305;DHT22;8261;47.678;-122.174;2022-07-10T07:00:46;17.80;99.90
16305;DHT22;8261;47.678;-122.174;2022-07-10T07:03:37;17.80;99.90
16305;DHT22;8261;47.678;-122.174;2022-07-10T07:06:39;17.80;99.90
16305;DHT22;8261;47.678;-122.174;2022-07-10T07:09:12;17.80;99.90
16305;DHT22;8261;47.678;-122.174;2022-07-10T07:11:44;17.70;99.90
16305;DHT22;8261;47.678;-122.174;2022-07-10T07:14:41;17.70;99.90
16305;DHT22;8261;47.678;-122.174;2022-07-10T07:17:25;17.70;99.90
16305;DHT22;8261;47.678;-122.174;2022-07-10T07:20:16;17.70;99.90
16305;DHT22;8261;47.678;-122.174;2022-07-10T07:23:11;17.70;99.90
16305;DHT22;8261;47.678;-122.174;2022-07-10T07:25:43;17.80;99.90
16305;DHT22;8261;47.678;-122.174;2022-07-10T07:28:16;17.80;99.90
16305;DHT22;8261;47.678;-122.174;2022-07-10T07:30:50;17.60;99.90
16305;DHT22;8261;47.678;-122.174;2022-07-10T07:33:42;17.60;99.90
16305;DHT22;8261;47.678;-122.174;2022-07-10T07:36:14;17.40;99.90
16305;DHT22;8261;47.678;-122.174;2022-07-10T07:38:48;17.40;99.90
16305;DHT22;8261;47.678;-122.174;2022-07-10T07:41:21;17.40;99.90
16305;DHT22;8261;47.678;-122.174;2022-07-10T07:43:54;17.50;99.90
16305;DHT22;8261;47.678;-122.174;2022-07-10T07:46:25;17.60;99.90
16305;DHT22;8261;47.678;-122.174;2022-07-10T07:48:58;17.50;99.90
16305;DHT22;8261;47.678;-122.174;2022-07-10T07:51:32;17.60;99.90
16305;DHT22;8261;47.678;-122.174;2022-07-10T07:54:07;17.50;99.90
16305;DHT22;8261;47.678;-122.174;2022-07-10T07:56:39;17.50;99.90
16305;DHT22;8261;47.678;-122.174;2022-07-10T07:59:13;17.40;99.90
16305;DHT22;8261;47.678;-122.174;2022-07-10T08:01:45;17.40;99.90
16305;DHT22;8261;47.678;-122.174;2022-07-10T08:04:18;17.30;99.90
16305;DHT22;8261;47.678;-122.174;2022-07-10T08:06:58;17.20;99.90
16305;DHT22;8261;47.678;-122.174;2022-07-10T08:09:38;17.20;99.90
16305;DHT22;8261;47.678;-122.174;2022-07-10T08:12:09;17.20;99.90
16305;DHT22;8261;47.678;-122.174;2022-07-10T08:14:43;17.20;99.90
16305;DHT22;8261;47.678;-122.174;2022-07-10T08:22:41;17.10;99.90
16305;DHT22;8261;47.678;-122.174;2022-07-10T08:25:41;17.10;99.90
16305;DHT22;8261;47.678;-122.174;2022-07-10T08:28:13;17.00;99.90
16305;DHT22;8261;47.678;-122.174;2022-07-10T08:30:51;17.00;99.90
16305;DHT22;8261;47.678;-122.174;2022-07-10T08:33:25;17.00;99.90
16305;DHT22;8261;47.678;-122.174;2022-07-10T08:36:14;16.90;99.90
16305;DHT22;8261;47.678;-122.174;2022-07-10T08:39:07;16.80;99.90
16305;DHT22;8261;47.678;-122.174;2022-07-10T08:41:44;16.70;99.90
16305;DHT22;8261;47.678;-122.174;2022-07-10T08:44:19;16.70;99.90
16305;DHT22;8261;47.678;-122.174;2022-07-10T08:46:50;16.70;99.90
16305;DHT22;8261;47.678;-122.174;2022-07-10T08:49:28;16.70;99.90
16305;DHT22;8261;47.678;-122.174;2022-07-10T08:52:06;16.70;99.90
16305;DHT22;8261;47.678;-122.174;2022-07-10T08:54:40;16.70;99.90
16305;DHT22;8261;47.678;-122.174;2022-07-10T08:57:16;16.70;99.90
16305;DHT22;8261;47.678;-122.174;2022-07-10T08:59:49;16.70;99.90
16305;DHT22;8261;47.678;-122.174;2022-07-10T09:02:20;16.70;99.90
16305;DHT22;8261;47.678;-122.174;2022-07-10T09:04:52;16.70;99.90
16305;DHT22;8261;47.678;-122.174;2022-07-10T09:07:24;16.80;99.90
16305;DHT22;8261;47.678;-122.174;2022-07-10T09:10:09;16.70;99.90
16305;DHT22;8261;47.678;-122.174;2022-07-10T09:13:00;16.70;99.90
16305;DHT22;8261;47.678;-122.174;2022-07-10T09:15:33;16.60;99.90
16305;DHT22;8261;47.678;-122.174;2022-07-10T09:18:06;16.60;99.90
16305;DHT22;8261;47.678;-122.174;2022-07-10T09:20:39;16.60;99.90
16305;DHT22;8261;47.678;-122.174;2022-07-10T09:23:16;16.50;99.90
16305;DHT22;8261;47.678;-122.174;2022-07-10T09:26:04;16.50;99.90
16305;DHT22;8261;47.678;-122.174;2022-07-10T09:29:05;16.40;99.90
16305;DHT22;8261;47.678;-122.174;2022-07-10T09:31:51;16.30;99.90
16305;DHT22;8261;47.678;-122.174;2022-07-10T09:34:41;16.30;99.90
16305;DHT22;8261;47.678;-122.174;2022-07-10T09:37:21;16.20;99.90
16305;DHT22;8261;47.678;-122.174;2022-07-10T09:39:55;16.20;99.90
16305;DHT22;8261;47.678;-122.174;2022-07-10T09:42:28;16.10;99.90
16305;DHT22;8261;47.678;-122.174;2022-07-10T09:45:19;16.00;99.90
16305;DHT22;8261;47.678;-122.174;2022-07-10T09:47:58;16.00;99.90
16305;DHT22;8261;47.678;-122.174;2022-07-10T09:50:35;16.00;99.90
16305;DHT22;8261;47.678;-122.174;2022-07-10T09:53:08;15.90;99.90
16305;DHT22;8261;47.678;-122.174;2022-07-10T09:55:40;15.90;99.90
16305;DHT22;8261;47.678;-122.174;2022-07-10T09:58:12;15.90;99.90
16305;DHT22;8261;47.678;-122.174;2022-07-10T10:00:49;15.80;99.90
16305;DHT22;8261;47.678;-122.174;2022-07-10T10:03:24;15.80;99.90
16305;DHT22;8261;47.678;-122.174;2022-07-10T10:06:02;15.80;99.90
16305;DHT22;8261;47.678;-122.174;2022-07-10T10:08:43;15.70;99.90
16305;DHT22;8261;47.678;-122.174;2022-07-10T10:11:19;15.70;99.90
16305;DHT22;8261;47.678;-122.174;2022-07-10T10:13:51;15.60;99.90
16305;DHT22;8261;47.678;-122.174;2022-07-10T10:16:26;15.60;99.90
16305;DHT22;8261;47.678;-122.174;2022-07-10T10:19:04;15.60;99.90
16305;DHT22;8261;47.678;-122.174;2022-07-10T10:21:54;15.60;99.90
16305;DHT22;8261;47.678;-122.174;2022-07-10T10:24:43;15.50;99.90
16305;DHT22;8261;47.678;-122.174;2022-07-10T10:27:17;15.50;99.90
16305;DHT22;8261;47.678;-122.174;2022-07-10T10:29:50;15.50;99.90
16305;DHT22;8261;47.678;-122.174;2022-07-10T10:32:28;15.40;99.90
16305;DHT22;8261;47.678;-122.174;2022-07-10T10:35:01;15.40;99.90
16305;DHT22;8261;47.678;-122.174;2022-07-10T10:37:36;15.40;99.90
16305;DHT22;8261;47.678;-122.174;2022-07-10T10:40:31;15.40;99.90
16305;DHT22;8261;47.678;-122.174;2022-07-10T10:43:21;15.40;99.90
16305;DHT22;8261;47.678;-122.174;2022-07-10T10:45:53;15.30;99.90
16305;DHT22;8261;47.678;-122.174;2022-07-10T10:48:28;15.30;99.90
16305;DHT22;8261;47.678;-122.174;2022-07-10T10:51:05;15.30;99.90
16305;DHT22;8261;47.678;-122.174;2022-07-10T10:53:37;15.30;99.90
16305;DHT22;8261;47.678;-122.174;2022-07-10T10:56:25;15.30;99.90
16305;DHT22;8261;47.678;-122.174;2022-07-10T10:58:58;15.30;99.90
16305;DHT22;8261;47.678;-122.174;2022-07-10T11:01:30;15.30;99.90
16305;DHT22;8261;47.678;-122.174;2022-07-10T11:04:16;15.30;99.90
16305;DHT22;8261;47.678;-122.174;2022-07-10T11:06:52;15.40;99.90
16305;DHT22;8261;47.678;-122.174;2022-07-10T11:09:28;15.40;99.90
16305;DHT22;8261;47.678;-122.174;2022-07-10T11:12:04;15.50;99.90
16305;DHT22;8261;47.678;-122.174;2022-07-10T11:14:37;15.50;99.90
16305;DHT22;8261;47.678;-122.174;2022-07-10T11:17:09;15.60;99.90
16305;DHT22;8261;47.678;-122.174;2022-07-10T11:19:42;15.60;99.90
16305;DHT22;8261;47.678;-122.174;2022-07-10T11:25:24;15.70;99.90
16305;DHT22;8261;47.678;-122.174;2022-07-10T11:28:05;15.80;99.90
16305;DHT22;8261;47.678;-122.174;2022-07-10T11:30:46;15.80;99.90
16305;DHT22;8261;47.678;-122.174;2022-07-10T11:33:18;15.90;99.90
16305;DHT22;8261;47.678;-122.174;2022-07-10T11:35:55;16.00;99.90
16305;DHT22;8261;47.678;-122.174;2022-07-10T11:38:32;16.00;99.90
16305;DHT22;8261;47.678;-122.174;2022-07-10T11:41:11;16.10;99.90
16305;DHT22;8261;47.678;-122.174;2022-07-10T11:43:50;16.00;99.90
16305;DHT22;8261;47.678;-122.174;2022-07-10T11:46:23;16.00;99.90
16305;DHT22;8261;47.678;-122.174;2022-07-10T11:49:04;16.10;99.90
16305;DHT22;8261;47.678;-122.174;2022-07-10T11:51:41;16.10;99.90
16305;DHT22;8261;47.678;-122.174;2022-07-10T11:54:14;16.00;99.90
16305;DHT22;8261;47.678;-122.174;2022-07-10T11:56:51;16.10;99.90
16305;DHT22;8261;47.678;-122.174;2022-07-10T11:59:24;16.00;99.90
16305;DHT22;8261;47.678;-122.174;2022-07-10T12:01:57;16.00;99.90
16305;DHT22;8261;47.678;-122.174;2022-07-10T12:04:30;16.00;99.90
16305;DHT22;8261;47.678;-122.174;2022-07-10T12:07:04;15.90;99.90
16305;DHT22;8261;47.678;-122.174;2022-07-10T12:09:35;16.00;99.90
16305;DHT22;8261;47.678;-122.174;2022-07-10T12:12:09;16.00;99.90
16305;DHT22;8261;47.678;-122.174;2022-07-10T12:14:40;15.90;99.90
16305;DHT22;8261;47.678;-122.174;2022-07-10T12:17:12;15.90;99.90
16305;DHT22;8261;47.678;-122.174;2022-07-10T12:19:45;16.00;99.90
16305;DHT22;8261;47.678;-122.174;2022-07-10T12:22:22;16.00;99.90
16305;DHT22;8261;47.678;-122.174;2022-07-10T12:24:54;16.00;99.90
16305;DHT22;8261;47.678;-122.174;2022-07-10T12:27:41;15.90;99.90
16305;DHT22;8261;47.678;-122.174;2022-07-10T12:30:20;15.90;99.90
16305;DHT22;8261;47.678;-122.174;2022-07-10T12:32:52;15.90;99.90
16305;DHT22;8261;47.678;-122.174;2022-07-10T12:35:25;15.80;99.90
16305;DHT22;8261;47.678;-122.174;2022-07-10T12:37:57;15.90;99.90
16305;DHT22;8261;47.678;-122.174;2022-07-10T12:40:31;15.90;99.90
16305;DHT22;8261;47.678;-122.174;2022-07-10T12:43:07;15.90;99.90
16305;DHT22;8261;47.678;-122.174;2022-07-10T12:45:40;15.80;99.90
16305;DHT22;8261;47.678;-122.174;2022-07-10T12:48:22;15.80;99.90
16305;DHT22;8261;47.678;-122.174;2022-07-10T12:50:54;15.80;99.90
16305;DHT22;8261;47.678;-122.174;2022-07-10T12:53:31;15.70;99.90
16305;DHT22;8261;47.678;-122.174;2022-07-10T12:56:02;15.70;99.90
16305;DHT22;8261;47.678;-122.174;2022-07-10T12:58:33;15.70;99.90
16305;DHT22;8261;47.678;-122.174;2022-07-10T13:01:05;15.70;99.90
16305;DHT22;8261;47.678;-122.174;2022-07-10T13:03:38;15.70;99.90
16305;DHT22;8261;47.678;-122.174;2022-07-10T13:06:35;15.70;99.90
16305;DHT22;8261;47.678;-122.174;2022-07-10T13:09:22;15.80;99.90
16305;DHT22;8261;47.678;-122.174;2022-07-10T13:11:54;15.90;99.90
16305;DHT22;8261;47.678;-122.174;2022-07-10T13:14:26;15.80;99.90
16305;DHT22;8261;47.678;-122.174;2022-07-10T13:17:00;15.90;99.90
16305;DHT22;8261;47.678;-122.174;2022-07-10T13:19:32;15.90;99.90
16305;DHT22;8261;47.678;-122.174;2022-07-10T13:22:04;15.90;99.90
16305;DHT22;8261;47.678;-122.174;2022-07-10T13:24:38;15.80;99.90
16305;DHT22;8261;47.678;-122.174;2022-07-10T13:27:10;15.70;99.90
16305;DHT22;8261;47.678;-122.174;2022-07-10T13:29:44;15.70;99.90
16305;DHT22;8261;47.678;-122.174;2022-07-10T13:32:18;15.70;99.90
16305;DHT22;8261;47.678;-122.174;2022-07-10T13:34:57;15.70;99.90
16305;DHT22;8261;47.678;-122.174;2022-07-10T13:37:29;15.70;99.90
16305;DHT22;8261;47.678;-122.174;2022-07-10T13:40:10;15.70;99.90
16305;DHT22;8261;47.678;-122.174;2022-07-10T13:42:46;15.80;99.90
16305;DHT22;8261;47.678;-122.174;2022-07-10T13:45:19;15.90;99.90
16305;DHT22;8261;47.678;-122.174;2022-07-10T13:47:56;15.90;99.90
16305;DHT22;8261;47.678;-122.174;2022-07-10T13:50:31;16.00;99.90
16305;DHT22;8261;47.678;-122.174;2022-07-10T13:53:06;15.90;99.90
16305;DHT22;8261;47.678;-122.174;2022-07-10T13:55:42;15.80;99.90
16305;DHT22;8261;47.678;-122.174;2022-07-10T13:58:15;15.90;99.90
16305;DHT22;8261;47.678;-122.174;2022-07-10T14:00:47;15.90;99.90
16305;DHT22;8261;47.678;-122.174;2022-07-10T14:03:19;15.80;99.90
16305;DHT22;8261;47.678;-122.174;2022-07-10T14:06:20;15.80;99.90
16305;DHT22;8261;47.678;-122.174;2022-07-10T14:09:17;15.80;99.90
16305;DHT22;8261;47.678;-122.174;2022-07-10T14:11:54;16.00;99.90
16305;DHT22;8261;47.678;-122.174;2022-07-10T14:14:27;16.10;99.90
16305;DHT22;8261;47.678;-122.174;2022-07-10T14:16:59;16.10;99.90
16305;DHT22;8261;47.678;-122.174;2022-07-10T14:19:33;16.10;99.90
16305;DHT22;8261;47.678;-122.174;2022-07-10T14:22:05;16.10;99.90
16305;DHT22;8261;47.678;-122.174;2022-07-10T14:24:37;16.20;99.90
16305;DHT22;8261;47.678;-122.174;2022-07-10T14:27:10;16.30;99.90
16305;DHT22;8261;47.678;-122.174;2022-07-10T14:29:42;16.30;99.90
16305;DHT22;8261;47.678;-122.174;2022-07-10T14:32:14;16.40;99.90
16305;DHT22;8261;47.678;-122.174;2022-07-10T14:34:48;16.40;99.90
16305;DHT22;8261;47.678;-122.174;2022-07-10T14:37:19;16.30;99.90
16305;DHT22;8261;47.678;-122.174;2022-07-10T14:39:51;16.40;99.90
16305;DHT22;8261;47.678;-122.174;2022-07-10T14:42:27;16.60;99.90
16305;DHT22;8261;47.678;-122.174;2022-07-10T14:44:59;16.40;99.90
16305;DHT22;8261;47.678;-122.174;2022-07-10T14:47:51;16.50;99.90
16305;DHT22;8261;47.678;-122.174;2022-07-10T14:50:25;16.40;99.90
16305;DHT22;8261;47.678;-122.174;2022-07-10T14:52:57;16.30;99.90
16305;DHT22;8261;47.678;-122.174;2022-07-10T14:55:30;16.30;99.90
16305;DHT22;8261;47.678;-122.174;2022-07-10T14:58:04;16.40;99.90
16305;DHT22;8261;47.678;-122.174;2022-07-10T15:00:41;16.60;99.90
16305;DHT22;8261;47.678;-122.174;2022-07-10T15:03:17;16.80;99.90
16305;DHT22;8261;47.678;-122.174;2022-07-10T15:05:48;16.80;99.90
16305;DHT22;8261;47.678;-122.174;2022-07-10T15:11:21;17.00;99.90
16305;DHT22;8261;47.678;-122.174;2022-07-10T15:13:57;16.90;99.90
16305;DHT22;8261;47.678;-122.174;2022-07-10T15:16:33;17.10;99.90
16305;DHT22;8261;47.678;-122.174;2022-07-10T15:19:09;17.00;99.90
16305;DHT22;8261;47.678;-122.174;2022-07-10T15:21:41;16.90;99.90
16305;DHT22;8261;47.678;-122.174;2022-07-10T15:24:12;17.00;99.90
16305;DHT22;8261;47.678;-122.174;2022-07-10T15:26:43;17.00;99.90
16305;DHT22;8261;47.678;-122.174;2022-07-10T15:29:20;17.10;99.90
16305;DHT22;8261;47.678;-122.174;2022-07-10T15:31:54;16.90;99.90
16305;DHT22;8261;47.678;-122.174;2022-07-10T15:34:28;16.80;99.90
16305;DHT22;8261;47.678;-122.174;2022-07-10T15:37:00;16.90;99.90
16305;DHT22;8261;47.678;-122.174;2022-07-10T15:39:33;17.00;99.90
16305;DHT22;8261;47.678;-122.174;2022-07-10T15:42:12;17.10;99.90
16305;DHT22;8261;47.678;-122.174;2022-07-10T15:44:45;17.20;99.90
16305;DHT22;8261;47.678;-122.174;2022-07-10T15:47:18;17.30;99.90
16305;DHT22;8261;47.678;-122.174;2022-07-10T15:49:50;17.40;99.90
16305;DHT22;8261;47.678;-122.174;2022-07-10T15:52:21;17.10;99.90
16305;DHT22;8261;47.678;-122.174;2022-07-10T15:54:53;17.20;99.90
16305;DHT22;8261;47.678;-122.174;2022-07-10T15:57:26;17.30;99.90
16305;DHT22;8261;47.678;-122.174;2022-07-10T16:00:04;17.50;99.90
16305;DHT22;8261;47.678;-122.174;2022-07-10T16:02:40;17.60;99.90
16305;DHT22;8261;47.678;-122.174;2022-07-10T16:05:30;17.50;99.90
16305;DHT22;8261;47.678;-122.174;2022-07-10T16:08:27;17.60;99.90
16305;DHT22;8261;47.678;-122.174;2022-07-10T16:11:18;17.90;99.90
16305;DHT22;8261;47.678;-122.174;2022-07-10T16:16:56;18.10;99.90
16305;DHT22;8261;47.678;-122.174;2022-07-10T16:19:30;18.20;99.90
16305;DHT22;8261;47.678;-122.174;2022-07-10T16:22:07;18.20;99.90
16305;DHT22;8261;47.678;-122.174;2022-07-10T16:24:41;17.80;99.90
16305;DHT22;8261;47.678;-122.174;2022-07-10T16:27:25;17.70;99.90
16305;DHT22;8261;47.678;-122.174;2022-07-10T16:29:57;17.40;99.90
16305;DHT22;8261;47.678;-122.174;2022-07-10T16:32:30;17.40;99.90
16305;DHT22;8261;47.678;-122.174;2022-07-10T16:35:04;17.40;99.90
16305;DHT22;8261;47.678;-122.174;2022-07-10T16:37:37;17.40;99.90
16305;DHT22;8261;47.678;-122.174;2022-07-10T16:40:09;17.60;99.90
16305;DHT22;8261;47.678;-122.174;2022-07-10T16:42:42;17.80;99.90
16305;DHT22;8261;47.678;-122.174;2022-07-10T16:45:28;18.20;99.90
16305;DHT22;8261;47.678;-122.174;2022-07-10T16:48:29;18.10;99.90
16305;DHT22;8261;47.678;-122.174;2022-07-10T16:51:02;18.30;99.90
16305;DHT22;8261;47.678;-122.174;2022-07-10T16:53:43;18.50;99.90
16305;DHT22;8261;47.678;-122.174;2022-07-10T16:56:31;18.30;99.90
16305;DHT22;8261;47.678;-122.174;2022-07-10T16:59:21;17.90;99.90
16305;DHT22;8261;47.678;-122.174;2022-07-10T17:02:22;17.70;99.90
16305;DHT22;8261;47.678;-122.174;2022-07-10T17:05:01;18.00;99.90
16305;DHT22;8261;47.678;-122.174;2022-07-10T17:07:34;17.80;99.90
16305;DHT22;8261;47.678;-122.174;2022-07-10T17:10:19;17.80;99.90
16305;DHT22;8261;47.678;-122.174;2022-07-10T17:13:16;17.90;99.90
16305;DHT22;8261;47.678;-122.174;2022-07-10T17:15:48;18.10;99.90
16305;DHT22;8261;47.678;-122.174;2022-07-10T17:18:20;18.40;99.90
16305;DHT22;8261;47.678;-122.174;2022-07-10T17:20:57;18.60;99.90
16305;DHT22;8261;47.678;-122.174;2022-07-10T17:24:06;19.00;99.90
16305;DHT22;8261;47.678;-122.174;2022-07-10T17:32:25;18.70;99.90
16305;DHT22;8261;47.678;-122.174;2022-07-10T17:34:56;18.70;99.90
16305;DHT22;8261;47.678;-122.174;2022-07-10T17:37:39;19.00;99.90
16305;DHT22;8261;47.678;-122.174;2022-07-10T17:40:15;19.20;99.90